sensor_id;sensor_type;location;lat;lon;timestamp;P1;durP1;ratioP1;P2;durP2;ratioP2
12886;SDS011;6511;49.746;6.094;2022-11-15T05:14:22;17.42;;;9.02;;
12886;SDS011;6511;49.746;6.094;2022-11-15T05:16:48;16.77;;;9.15;;
12886;SDS011;6511;49.746;6.094;2022-11-15T05:19:14;15.27;;;9.18;;
12886;SDS011;6511;49.746;6.094;2022-11-15T05:21:39;14.07;;;9.00;;
12886;SDS011;6511;49.746;6.094;2022-11-15T05:24:05;13.85;;;8.88;;
12886;SDS011;6511;49.746;6.094;2022-11-15T05:26:31;15.38;;;8.98;;
12886;SDS011;6511;49.746;6.094;2022-11-15T05:28:58;17.45;;;9.30;;
12886;SDS011;6511;49.746;6.094;2022-11-15T05:31:24;15.90;;;9.65;;
12886;SDS011;6511;49.746;6.094;2022-11-15T05:33:50;15.65;;;9.02;;
12886;SDS011;6511;49.746;6.094;2022-11-15T05:36:38;17.40;;;9.32;;
12886;SDS011;6511;49.746;6.094;2022-11-15T05:39:04;17.58;;;8.98;;
12886;SDS011;6511;49.746;6.094;2022-11-15T05:41:39;14.05;;;8.45;;
12886;SDS011;6511;49.746;6.094;2022-11-15T05:44:15;14.55;;;9.00;;
12886;SDS011;6511;49.746;6.094;2022-11-15T05:46:42;13.60;;;9.30;;
12886;SDS011;6511;49.746;6.094;2022-11-15T05:49:09;17.00;;;8.98;;
12886;SDS011;6511;49.746;6.094;2022-11-15T05:51:38;16.10;;;9.30;;
12886;SDS011;6511;49.746;6.094;2022-11-15T05:54:04;15.02;;;9.10;;
12886;SDS011;6511;49.746;6.094;2022-11-15T05:56:30;17.45;;;9.27;;
12886;SDS011;6511;49.746;6.094;2022-11-15T05:58:57;17.83;;;9.32;;
12886;SDS011;6511;49.746;6.094;2022-11-15T06:01:26;14.75;;;9.35;;
12886;SDS011;6511;49.746;6.094;2022-11-15T06:03:52;16.08;;;9.30;;
12886;SDS011;6511;49.746;6.094;2022-11-15T06:06:18;12.77;;;8.65;;
12886;SDS011;6511;49.746;6.094;2022-11-15T06:08:43;17.38;;;9.27;;
12886;SDS011;6511;49.746;6.094;2022-11-15T06:11:09;15.27;;;9.45;;
12886;SDS011;6511;49.746;6.094;2022-11-15T06:13:35;16.30;;;9.90;;
12886;SDS011;6511;49.746;6.094;2022-11-15T06:16:00;22.50;;;9.00;;
12886;SDS011;6511;49.746;6.094;2022-11-15T06:18:26;16.42;;;9.23;;
12886;SDS011;6511;49.746;6.094;2022-11-15T06:20:52;19.05;;;9.52;;
12886;SDS011;6511;49.746;6.094;2022-11-15T06:23:18;16.33;;;9.38;;
12886;SDS011;6511;49.746;6.094;2022-11-15T06:25:44;13.50;;;9.60;;
12886;SDS011;6511;49.746;6.094;2022-11-15T06:28:09;17.08;;;9.40;;
12886;SDS011;6511;49.746;6.094;2022-11-15T06:30:35;16.92;;;9.57;;
12886;SDS011;6511;49.746;6.094;2022-11-15T06:33:01;13.77;;;9.50;;
12886;SDS011;6511;49.746;6.094;2022-11-15T06:35:28;16.27;;;9.00;;
12886;SDS011;6511;49.746;6.094;2022-11-15T06:37:55;18.85;;;9.43;;
12886;SDS011;6511;49.746;6.094;2022-11-15T06:40:21;14.50;;;8.32;;
12886;SDS011;6511;49.746;6.094;2022-11-15T06:42:46;17.10;;;8.75;;
12886;SDS011;6511;49.746;6.094;2022-11-15T06:45:12;16.55;;;9.10;;
12886;SDS011;6511;49.746;6.094;2022-11-15T06:47:44;17.15;;;9.60;;
12886;SDS011;6511;49.746;6.094;2022-11-15T06:50:11;16.13;;;8.95;;
12886;SDS011;6511;49.746;6.094;2022-11-15T06:52:37;18.27;;;8.82;;
12886;SDS011;6511;49.746;6.094;2022-11-15T06:55:03;16.17;;;9.05;;
12886;SDS011;6511;49.746;6.094;2022-11-15T06:57:29;18.38;;;9.60;;
12886;SDS011;6511;49.746;6.094;2022-11-15T06:59:54;18.88;;;9.05;;
12886;SDS011;6511;49.746;6.094;2022-11-15T07:02:20;15.90;;;9.10;;
12886;SDS011;6511;49.746;6.094;2022-11-15T07:04:45;14.40;;;9.00;;
12886;SDS011;6511;49.746;6.094;2022-11-15T07:07:11;16.83;;;8.65;;
12886;SDS011;6511;49.746;6.094;2022-11-15T07:09:36;18.15;;;9.65;;
12886;SDS011;6511;49.746;6.094;2022-11-15T07:12:02;16.20;;;8.70;;
12886;SDS011;6511;49.746;6.094;2022-11-15T07:14:28;16.63;;;8.88;;
12886;SDS011;6511;49.746;6.094;2022-11-15T07:16:54;17.48;;;9.20;;
12886;SDS011;6511;49.746;6.094;2022-11-15T07:19:19;15.32;;;8.80;;
12886;SDS011;6511;49.746;6.094;2022-11-15T07:21:45;15.95;;;8.07;;
12886;SDS011;6511;49.746;6.094;2022-11-15T07:24:11;17.88;;;8.55;;
12886;SDS011;6511;49.746;6.094;2022-11-15T07:26:40;16.55;;;8.20;;
12886;SDS011;6511;49.746;6.094;2022-11-15T07:29:06;18.02;;;8.52;;
12886;SDS011;6511;49.746;6.094;2022-11-15T07:31:31;15.98;;;8.40;;
12886;SDS011;6511;49.746;6.094;2022-11-15T07:33:57;12.45;;;8.27;;
12886;SDS011;6511;49.746;6.094;2022-11-15T07:36:22;17.98;;;9.38;;
12886;SDS011;6511;49.746;6.094;2022-11-15T07:38:48;17.63;;;8.70;;
12886;SDS011;6511;49.746;6.094;2022-11-15T07:41:14;14.68;;;8.65;;
12886;SDS011;6511;49.746;6.094;2022-11-15T07:43:39;19.83;;;10.48;;
12886;SDS011;6511;49.746;6.094;2022-11-15T07:46:06;15.73;;;10.57;;
12886;SDS011;6511;49.746;6.094;2022-11-15T07:48:34;18.17;;;11.00;;
12886;SDS011;6511;49.746;6.094;2022-11-15T07:51:00;25.20;;;10.50;;
12886;SDS011;6511;49.746;6.094;2022-11-15T07:53:26;18.17;;;9.73;;
12886;SDS011;6511;49.746;6.094;2022-11-15T07:55:52;19.88;;;10.05;;
12886;SDS011;6511;49.746;6.094;2022-11-15T07:58:18;14.88;;;9.07;;
12886;SDS011;6511;49.746;6.094;2022-11-15T08:00:44;16.50;;;8.85;;
12886;SDS011;6511;49.746;6.094;2022-11-15T08:03:11;23.45;;;10.30;;
12886;SDS011;6511;49.746;6.094;2022-11-15T08:05:38;20.67;;;10.55;;
12886;SDS011;6511;49.746;6.094;2022-11-15T08:08:05;19.13;;;9.38;;
12886;SDS011;6511;49.746;6.094;2022-11-15T08:10:32;19.17;;;10.00;;
12886;SDS011;6511;49.746;6.094;2022-11-15T08:13:03;19.63;;;9.35;;
12886;SDS011;6511;49.746;6.094;2022-11-15T08:15:33;20.52;;;10.25;;
12886;SDS011;6511;49.746;6.094;2022-11-15T08:18:00;18.42;;;9.45;;
12886;SDS011;6511;49.746;6.094;2022-11-15T08:20:29;15.80;;;9.18;;
12886;SDS011;6511;49.746;6.094;2022-11-15T08:22:55;19.00;;;10.95;;
12886;SDS011;6511;49.746;6.094;2022-11-15T08:25:22;20.02;;;12.35;;
12886;SDS011;6511;49.746;6.094;2022-11-15T08:27:51;22.52;;;9.93;;
12886;SDS011;6511;49.746;6.094;2022-11-15T08:30:17;16.45;;;10.35;;
12886;SDS011;6511;49.746;6.094;2022-11-15T08:32:43;17.70;;;10.25;;
12886;SDS011;6511;49.746;6.094;2022-11-15T08:35:09;19.10;;;10.63;;
12886;SDS011;6511;49.746;6.094;2022-11-15T08:37:34;17.13;;;10.32;;
12886;SDS011;6511;49.746;6.094;2022-11-15T08:40:00;17.80;;;11.00;;
12886;SDS011;6511;49.746;6.094;2022-11-15T08:42:26;19.55;;;10.35;;
12886;SDS011;6511;49.746;6.094;2022-11-15T08:44:51;19.35;;;11.38;;
12886;SDS011;6511;49.746;6.094;2022-11-15T08:47:17;20.88;;;10.95;;
12886;SDS011;6511;49.746;6.094;2022-11-15T08:49:43;21.17;;;11.32;;
12886;SDS011;6511;49.746;6.094;2022-11-15T08:52:08;23.80;;;11.52;;
12886;SDS011;6511;49.746;6.094;2022-11-15T08:54:34;22.38;;;11.52;;
12886;SDS011;6511;49.746;6.094;2022-11-15T08:56:59;24.58;;;12.68;;
12886;SDS011;6511;49.746;6.094;2022-11-15T08:59:25;19.42;;;11.25;;
12886;SDS011;6511;49.746;6.094;2022-11-15T09:01:51;22.00;;;11.13;;
12886;SDS011;6511;49.746;6.094;2022-11-15T09:04:16;21.33;;;10.90;;
12886;SDS011;6511;49.746;6.094;2022-11-15T09:06:42;20.30;;;10.02;;
12886;SDS011;6511;49.746;6.094;2022-11-15T09:09:08;19.02;;;9.80;;
12886;SDS011;6511;49.746;6.094;2022-11-15T09:11:33;16.88;;;8.80;;
12886;SDS011;6511;49.746;6.094;2022-11-15T09:13:59;15.25;;;8.75;;
12886;SDS011;6511;49.746;6.094;2022-11-15T09:16:25;17.40;;;9.40;;
12886;SDS011;6511;49.746;6.094;2022-11-15T09:18:51;17.35;;;8.73;;
12886;SDS011;6511;49.746;6.094;2022-11-15T09:21:28;14.45;;;7.97;;
12886;SDS011;6511;49.746;6.094;2022-11-15T09:23:54;15.60;;;9.15;;
12886;SDS011;6511;49.746;6.094;2022-11-15T09:26:20;15.93;;;8.93;;
12886;SDS011;6511;49.746;6.094;2022-11-15T09:28:46;16.33;;;8.50;;
12886;SDS011;6511;49.746;6.094;2022-11-15T09:31:12;15.02;;;8.30;;
12886;SDS011;6511;49.746;6.094;2022-11-15T09:33:37;13.50;;;8.27;;
12886;SDS011;6511;49.746;6.094;2022-11-15T09:36:05;13.13;;;7.80;;
12886;SDS011;6511;49.746;6.094;2022-11-15T09:38:33;15.27;;;7.50;;
12886;SDS011;6511;49.746;6.094;2022-11-15T09:41:15;12.73;;;8.02;;
12886;SDS011;6511;49.746;6.094;2022-11-15T09:46:42;11.50;;;7.28;;
12886;SDS011;6511;49.746;6.094;2022-11-15T09:49:20;12.48;;;7.28;;
12886;SDS011;6511;49.746;6.094;2022-11-15T09:51:47;10.27;;;6.97;;
12886;SDS011;6511;49.746;6.094;2022-11-15T09:54:32;12.10;;;6.65;;
12886;SDS011;6511;49.746;6.094;2022-11-15T09:57:12;12.02;;;6.85;;
12886;SDS011;6511;49.746;6.094;2022-11-15T10:05:15;11.90;;;7.07;;
12886;SDS011;6511;49.746;6.094;2022-11-15T10:10:39;10.05;;;7.40;;
12886;SDS011;6511;49.746;6.094;2022-11-15T10:13:14;10.10;;;6.63;;
12886;SDS011;6511;49.746;6.094;2022-11-15T10:15:52;11.52;;;6.65;;
12886;SDS011;6511;49.746;6.094;2022-11-15T10:18:34;12.48;;;7.00;;
12886;SDS011;6511;49.746;6.094;2022-11-15T10:21:12;10.07;;;6.95;;
12886;SDS011;6511;49.746;6.094;2022-11-15T10:23:45;9.68;;;6.38;;
12886;SDS011;6511;49.746;6.094;2022-11-15T10:26:11;10.95;;;6.70;;
12886;SDS011;6511;49.746;6.094;2022-11-15T10:28:40;9.43;;;6.50;;
12886;SDS011;6511;49.746;6.094;2022-11-15T10:31:20;9.20;;;6.43;;
12886;SDS011;6511;49.746;6.094;2022-11-15T10:33:50;8.07;;;5.80;;
12886;SDS011;6511;49.746;6.094;2022-11-15T10:36:23;6.70;;;6.00;;
12886;SDS011;6511;49.746;6.094;2022-11-15T10:41:29;8.07;;;5.53;;
12886;SDS011;6511;49.746;6.094;2022-11-15T10:46:32;10.13;;;6.38;;
12886;SDS011;6511;49.746;6.094;2022-11-15T10:49:19;7.97;;;5.40;;
12886;SDS011;6511;49.746;6.094;2022-11-15T10:55:27;7.63;;;5.57;;
12886;SDS011;6511;49.746;6.094;2022-11-15T10:57:37;8.82;;;5.82;;
12886;SDS011;6511;49.746;6.094;2022-11-15T11:02:38;7.32;;;5.95;;
12886;SDS011;6511;49.746;6.094;2022-11-15T11:05:27;7.75;;;6.00;;
12886;SDS011;6511;49.746;6.094;2022-11-15T11:10:35;8.50;;;5.80;;
12886;SDS011;6511;49.746;6.094;2022-11-15T11:13:14;7.82;;;5.85;;
12886;SDS011;6511;49.746;6.094;2022-11-15T11:15:46;5.90;;;5.30;;
12886;SDS011;6511;49.746;6.094;2022-11-15T11:18:19;7.72;;;5.88;;
12886;SDS011;6511;49.746;6.094;2022-11-15T11:20:58;8.15;;;6.30;;
12886;SDS011;6511;49.746;6.094;2022-11-15T11:23:50;7.15;;;5.80;;
12886;SDS011;6511;49.746;6.094;2022-11-15T11:28:56;6.75;;;5.22;;
12886;SDS011;6511;49.746;6.094;2022-11-15T11:36:44;7.80;;;5.45;;
12886;SDS011;6511;49.746;6.094;2022-11-15T11:41:53;7.90;;;5.00;;
12886;SDS011;6511;49.746;6.094;2022-11-15T11:47:37;7.43;;;4.38;;
12886;SDS011;6511;49.746;6.094;2022-11-15T11:50:13;6.75;;;4.80;;
12886;SDS011;6511;49.746;6.094;2022-11-15T11:52:42;5.05;;;4.53;;
12886;SDS011;6511;49.746;6.094;2022-11-15T11:55:23;5.63;;;4.50;;
12886;SDS011;6511;49.746;6.094;2022-11-15T11:58:04;7.30;;;4.57;;
12886;SDS011;6511;49.746;6.094;2022-11-15T12:00:41;7.35;;;4.15;;
12886;SDS011;6511;49.746;6.094;2022-11-15T12:03:13;5.90;;;4.20;;
12886;SDS011;6511;49.746;6.094;2022-11-15T12:05:44;5.97;;;4.32;;
12886;SDS011;6511;49.746;6.094;2022-11-15T12:10:51;4.75;;;4.07;;
12886;SDS011;6511;49.746;6.094;2022-11-15T12:13:38;8.70;;;4.38;;
12886;SDS011;6511;49.746;6.094;2022-11-15T12:16:11;8.68;;;4.47;;
12886;SDS011;6511;49.746;6.094;2022-11-15T12:18:42;5.50;;;4.70;;
12886;SDS011;6511;49.746;6.094;2022-11-15T12:21:14;6.05;;;4.32;;
12886;SDS011;6511;49.746;6.094;2022-11-15T12:23:58;4.38;;;3.65;;
12886;SDS011;6511;49.746;6.094;2022-11-15T12:26:37;6.63;;;4.18;;
12886;SDS011;6511;49.746;6.094;2022-11-15T12:29:27;4.82;;;3.78;;
12886;SDS011;6511;49.746;6.094;2022-11-15T12:32:01;5.15;;;4.00;;
12886;SDS011;6511;49.746;6.094;2022-11-15T12:34:29;9.70;;;4.28;;
12886;SDS011;6511;49.746;6.094;2022-11-15T12:45:36;4.10;;;3.30;;
12886;SDS011;6511;49.746;6.094;2022-11-15T12:58:58;5.13;;;3.22;;
12886;SDS011;6511;49.746;6.094;2022-11-15T13:07:05;6.22;;;3.17;;
12886;SDS011;6511;49.746;6.094;2022-11-15T13:14:50;3.60;;;3.30;;
12886;SDS011;6511;49.746;6.094;2022-11-15T13:20:27;5.57;;;3.28;;
12886;SDS011;6511;49.746;6.094;2022-11-15T13:22:59;5.65;;;3.20;;
12886;SDS011;6511;49.746;6.094;2022-11-15T13:31:21;3.03;;;2.70;;
12886;SDS011;6511;49.746;6.094;2022-11-15T13:33:51;3.22;;;2.78;;
12886;SDS011;6511;49.746;6.094;2022-11-15T13:36:25;3.70;;;2.90;;
12886;SDS011;6511;49.746;6.094;2022-11-15T13:41:27;3.28;;;2.70;;
12886;SDS011;6511;49.746;6.094;2022-11-15T13:43:55;3.65;;;2.97;;
12886;SDS011;6511;49.746;6.094;2022-11-15T13:46:23;3.42;;;3.00;;
12886;SDS011;6511;49.746;6.094;2022-11-15T13:48:53;3.40;;;3.10;;
12886;SDS011;6511;49.746;6.094;2022-11-15T13:54:38;3.53;;;3.00;;
12886;SDS011;6511;49.746;6.094;2022-11-15T13:57:02;3.85;;;3.25;;
12886;SDS011;6511;49.746;6.094;2022-11-15T13:59:35;3.65;;;3.35;;
12886;SDS011;6511;49.746;6.094;2022-11-15T14:02:12;4.95;;;3.30;;
12886;SDS011;6511;49.746;6.094;2022-11-15T14:04:48;4.43;;;3.17;;
12886;SDS011;6511;49.746;6.094;2022-11-15T14:07:17;3.88;;;3.20;;
12886;SDS011;6511;49.746;6.094;2022-11-15T14:09:44;3.78;;;3.47;;
12886;SDS011;6511;49.746;6.094;2022-11-15T14:14:54;4.28;;;3.40;;
12886;SDS011;6511;49.746;6.094;2022-11-15T14:17:41;4.93;;;3.45;;
12886;SDS011;6511;49.746;6.094;2022-11-15T14:23:00;3.53;;;3.22;;
12886;SDS011;6511;49.746;6.094;2022-11-15T14:25:28;3.17;;;2.88;;
12886;SDS011;6511;49.746;6.094;2022-11-15T14:30:43;3.60;;;2.90;;
12886;SDS011;6511;49.746;6.094;2022-11-15T14:35:56;4.75;;;3.33;;
12886;SDS011;6511;49.746;6.094;2022-11-15T14:38:23;4.13;;;2.88;;
12886;SDS011;6511;49.746;6.094;2022-11-15T14:40:50;2.90;;;2.70;;
12886;SDS011;6511;49.746;6.094;2022-11-15T14:43:16;3.40;;;2.97;;
12886;SDS011;6511;49.746;6.094;2022-11-15T14:45:42;3.95;;;2.65;;
12886;SDS011;6511;49.746;6.094;2022-11-15T14:48:08;5.22;;;2.85;;
12886;SDS011;6511;49.746;6.094;2022-11-15T14:50:34;3.33;;;2.70;;
12886;SDS011;6511;49.746;6.094;2022-11-15T14:53:00;2.97;;;2.53;;
12886;SDS011;6511;49.746;6.094;2022-11-15T14:55:28;2.92;;;2.63;;
12886;SDS011;6511;49.746;6.094;2022-11-15T14:58:00;3.72;;;2.50;;
12886;SDS011;6511;49.746;6.094;2022-11-15T15:00:30;2.92;;;2.55;;
12886;SDS011;6511;49.746;6.094;2022-11-15T15:02:56;2.67;;;2.33;;
12886;SDS011;6511;49.746;6.094;2022-11-15T15:05:23;2.97;;;2.53;;
12886;SDS011;6511;49.746;6.094;2022-11-15T15:08:10;3.15;;;2.30;;
12886;SDS011;6511;49.746;6.094;2022-11-15T15:10:37;4.30;;;2.50;;
12886;SDS011;6511;49.746;6.094;2022-11-15T15:13:25;3.22;;;2.50;;
12886;SDS011;6511;49.746;6.094;2022-11-15T15:15:51;6.82;;;5.25;;
12886;SDS011;6511;49.746;6.094;2022-11-15T15:18:17;6.22;;;5.13;;
12886;SDS011;6511;49.746;6.094;2022-11-15T15:20:44;5.80;;;4.15;;
12886;SDS011;6511;49.746;6.094;2022-11-15T15:23:19;4.95;;;3.55;;
12886;SDS011;6511;49.746;6.094;2022-11-15T15:25:46;4.32;;;3.15;;
12886;SDS011;6511;49.746;6.094;2022-11-15T15:28:13;3.47;;;2.97;;
12886;SDS011;6511;49.746;6.094;2022-11-15T15:30:40;3.50;;;3.08;;
12886;SDS011;6511;49.746;6.094;2022-11-15T15:33:08;4.60;;;3.00;;
12886;SDS011;6511;49.746;6.094;2022-11-15T15:35:34;4.47;;;2.97;;
12886;SDS011;6511;49.746;6.094;2022-11-15T15:38:00;4.65;;;2.95;;
12886;SDS011;6511;49.746;6.094;2022-11-15T15:40:27;5.63;;;2.90;;
12886;SDS011;6511;49.746;6.094;2022-11-15T15:42:54;3.25;;;2.70;;
12886;SDS011;6511;49.746;6.094;2022-11-15T15:45:20;4.07;;;2.67;;
12886;SDS011;6511;49.746;6.094;2022-11-15T15:47:46;6.93;;;3.58;;
12886;SDS011;6511;49.746;6.094;2022-11-15T15:50:22;4.18;;;3.50;;
12886;SDS011;6511;49.746;6.094;2022-11-15T15:52:54;5.07;;;3.45;;
12886;SDS011;6511;49.746;6.094;2022-11-15T15:55:22;4.35;;;3.28;;
12886;SDS011;6511;49.746;6.094;2022-11-15T15:57:48;3.40;;;2.95;;
12886;SDS011;6511;49.746;6.094;2022-11-15T16:00:14;4.03;;;3.17;;
12886;SDS011;6511;49.746;6.094;2022-11-15T16:02:41;5.07;;;3.60;;
12886;SDS011;6511;49.746;6.094;2022-11-15T23:02:12;18.23;;;10.68;;
12886;SDS011;6511;49.746;6.094;2022-11-15T23:04:38;16.30;;;11.10;;
12886;SDS011;6511;49.746;6.094;2022-11-15T23:07:03;17.73;;;11.23;;
12886;SDS011;6511;49.746;6.094;2022-11-15T23:09:29;18.17;;;12.23;;
12886;SDS011;6511;49.746;6.094;2022-11-15T23:11:55;19.08;;;12.27;;
12886;SDS011;6511;49.746;6.094;2022-11-15T23:14:39;17.95;;;12.05;;
12886;SDS011;6511;49.746;6.094;2022-11-15T23:17:05;17.25;;;11.27;;
12886;SDS011;6511;49.746;6.094;2022-11-15T23:19:31;20.05;;;12.15;;
12886;SDS011;6511;49.746;6.094;2022-11-15T23:21:56;17.58;;;11.65;;
12886;SDS011;6511;49.746;6.094;2022-11-15T23:24:40;17.02;;;11.60;;
12886;SDS011;6511;49.746;6.094;2022-11-15T23:27:06;18.25;;;12.15;;
12886;SDS011;6511;49.746;6.094;2022-11-15T23:29:32;19.77;;;11.57;;
12886;SDS011;6511;49.746;6.094;2022-11-15T23:32:19;20.48;;;11.65;;
12886;SDS011;6511;49.746;6.094;2022-11-15T23:35:04;17.48;;;12.25;;
12886;SDS011;6511;49.746;6.094;2022-11-15T23:37:30;20.33;;;12.77;;
12886;SDS011;6511;49.746;6.094;2022-11-15T23:39:56;21.85;;;12.50;;
12886;SDS011;6511;49.746;6.094;2022-11-15T23:42:22;21.23;;;13.23;;
12886;SDS011;6511;49.746;6.094;2022-11-15T23:44:48;22.83;;;12.90;;
12886;SDS011;6511;49.746;6.094;2022-11-15T23:47:15;21.55;;;12.77;;
12886;SDS011;6511;49.746;6.094;2022-11-15T23:49:41;23.63;;;13.63;;
12886;SDS011;6511;49.746;6.094;2022-11-15T23:52:07;20.23;;;12.60;;
12886;SDS011;6511;49.746;6.094;2022-11-15T23:54:33;20.10;;;13.35;;
12886;SDS011;6511;49.746;6.094;2022-11-15T23:56:58;19.33;;;12.98;;
12886;SDS011;6511;49.746;6.094;2022-11-15T23:59:24;19.60;;;12.43;;
